createdAt,value
2022-07-29T00:01:19.677Z,1.70
2022-07-29T00:03:46.912Z,2.35
2022-07-29T00:06:13.824Z,1.70
2022-07-29T00:08:40.607Z,1.73
2022-07-29T00:11:07.420Z,1.90
2022-07-29T00:13:34.242Z,1.90
2022-07-29T00:16:05.000Z,2.13
2022-07-29T00:18:34.786Z,2.40
2022-07-29T00:21:01.549Z,2.10
2022-07-29T00:23:28.334Z,2.05
2022-07-29T00:25:55.005Z,2.17
2022-07-29T00:28:21.701Z,2.00
2022-07-29T00:30:48.492Z,2.13
2022-07-29T00:33:15.190Z,2.13
2022-07-29T00:35:44.687Z,2.22
2022-07-29T00:38:15.708Z,1.90
2022-07-29T00:40:43.871Z,1.75
2022-07-29T00:43:14.758Z,2.45
2022-07-29T00:45:42.546Z,1.90
2022-07-29T00:48:11.662Z,1.77
2022-07-29T00:50:42.441Z,2.35
2022-07-29T00:53:13.053Z,2.22
2022-07-29T00:55:39.994Z,2.55
2022-07-29T00:58:07.641Z,2.08
2022-07-29T01:00:37.808Z,1.92
2022-07-29T01:03:06.780Z,2.40
2022-07-29T01:05:50.994Z,2.00
2022-07-29T01:08:21.463Z,2.83
2022-07-29T01:10:48.896Z,2.33
2022-07-29T01:13:18.725Z,1.98
2022-07-29T01:15:50.347Z,2.50
2022-07-29T01:18:38.797Z,2.40
2022-07-29T01:21:14.600Z,2.22
2022-07-29T01:23:59.862Z,2.20
2022-07-29T01:26:46.921Z,2.30
2022-07-29T01:29:44.766Z,1.95
2022-07-29T01:32:28.013Z,2.10
2022-07-29T01:35:04.014Z,2.63
2022-07-29T01:37:36.986Z,2.13
2022-07-29T01:40:08.009Z,1.83
2022-07-29T01:42:40.062Z,1.73
2022-07-29T01:45:20.857Z,1.92
2022-07-29T01:48:13.185Z,1.90
2022-07-29T01:51:09.298Z,2.03
2022-07-29T01:53:47.000Z,1.60
2022-07-29T01:56:17.107Z,1.85
2022-07-29T01:58:46.331Z,1.90
2022-07-29T02:01:14.711Z,1.73
2022-07-29T02:03:47.049Z,2.05
2022-07-29T02:06:19.894Z,1.73
2022-07-29T02:08:48.009Z,2.00
2022-07-29T02:11:17.130Z,1.95
2022-07-29T02:13:45.992Z,2.35
2022-07-29T02:16:14.494Z,2.25
2022-07-29T02:18:46.064Z,2.30
2022-07-29T02:21:15.180Z,1.98
2022-07-29T02:23:50.490Z,2.35
2022-07-29T02:26:22.227Z,2.05
2022-07-29T02:28:52.166Z,2.25
2022-07-29T02:31:22.614Z,1.88
2022-07-29T02:33:52.761Z,2.42
2022-07-29T02:36:23.276Z,2.60
2022-07-29T02:38:51.165Z,2.50
2022-07-29T02:41:42.983Z,2.03
2022-07-29T02:44:18.249Z,2.30
2022-07-29T02:47:05.650Z,2.10
2022-07-29T02:49:59.015Z,2.35
2022-07-29T02:52:44.572Z,2.13
2022-07-29T02:57:54.549Z,2.08
2022-07-29T03:00:24.556Z,1.95
2022-07-29T03:02:54.629Z,2.13
2022-07-29T03:05:23.419Z,2.35
2022-07-29T03:07:59.698Z,2.30
2022-07-29T03:10:28.304Z,2.50
2022-07-29T03:12:56.304Z,2.33
2022-07-29T03:15:26.441Z,2.55
2022-07-29T03:17:53.785Z,2.15
2022-07-29T03:20:20.979Z,2.25
2022-07-29T03:22:48.031Z,2.10
2022-07-29T03:25:20.575Z,1.90
2022-07-29T03:27:48.063Z,2.10
2022-07-29T03:30:18.201Z,2.20
2022-07-29T03:32:49.442Z,2.10
2022-07-29T03:35:19.214Z,2.45
2022-07-29T03:37:46.185Z,2.20
2022-07-29T03:40:28.727Z,1.85
2022-07-29T03:42:56.551Z,2.83
2022-07-29T03:45:27.399Z,2.10
2022-07-29T03:48:00.875Z,2.10
2022-07-29T03:50:32.104Z,2.00
2022-07-29T03:52:59.707Z,2.40
2022-07-29T03:55:28.846Z,1.90
2022-07-29T03:58:00.675Z,2.05
2022-07-29T04:00:28.417Z,2.00
2022-07-29T04:02:55.174Z,2.28
2022-07-29T04:05:22.116Z,2.25
2022-07-29T04:07:49.653Z,2.60
2022-07-29T04:10:28.298Z,2.40
2022-07-29T04:12:59.272Z,2.45
2022-07-29T04:15:26.285Z,2.25
2022-07-29T04:17:58.043Z,2.30
2022-07-29T04:20:24.787Z,2.65
2022-07-29T04:22:51.493Z,2.63
2022-07-29T04:25:18.357Z,2.72
2022-07-29T04:28:03.988Z,3.25
2022-07-29T04:30:32.078Z,3.20
2022-07-29T04:32:59.630Z,2.80
2022-07-29T04:35:26.416Z,2.78
2022-07-29T04:37:55.565Z,2.88
2022-07-29T04:40:22.279Z,3.08
2022-07-29T04:42:49.457Z,3.20
2022-07-29T04:45:16.560Z,3.20
2022-07-29T04:47:49.147Z,3.22
2022-07-29T04:50:20.776Z,3.08
2022-07-29T04:52:47.442Z,2.97
2022-07-29T04:55:14.249Z,3.08
2022-07-29T04:57:43.300Z,3.22
2022-07-29T05:00:11.319Z,3.22
2022-07-29T05:02:38.127Z,3.08
2022-07-29T05:05:07.779Z,3.38
2022-07-29T05:07:34.569Z,3.55
2022-07-29T05:10:01.414Z,3.67
2022-07-29T05:12:30.495Z,3.10
2022-07-29T05:14:57.335Z,3.83
2022-07-29T05:17:24.119Z,3.35
2022-07-29T05:19:52.211Z,3.55
2022-07-29T05:22:19.970Z,3.30
2022-07-29T05:24:47.082Z,3.67
2022-07-29T05:27:13.984Z,3.33
2022-07-29T05:29:45.572Z,3.42
2022-07-29T05:32:15.745Z,3.28
2022-07-29T05:34:50.738Z,3.38
2022-07-29T05:37:19.842Z,3.28
2022-07-29T05:39:56.897Z,3.25
2022-07-29T05:42:26.813Z,3.30
2022-07-29T05:44:58.994Z,2.83
2022-07-29T05:47:28.422Z,2.70
2022-07-29T05:49:55.164Z,2.90
2022-07-29T05:52:22.189Z,2.50
2022-07-29T05:54:49.056Z,2.88
2022-07-29T05:57:24.285Z,3.33
2022-07-29T05:59:53.533Z,2.60
2022-07-29T06:02:20.503Z,2.80
2022-07-29T06:04:50.524Z,3.38
2022-07-29T06:07:17.601Z,3.00
2022-07-29T06:09:46.851Z,2.95
2022-07-29T06:12:13.717Z,3.10
2022-07-29T06:14:42.287Z,3.70
2022-07-29T06:17:09.084Z,5.03
2022-07-29T06:19:38.838Z,3.25
2022-07-29T06:22:06.172Z,3.22
2022-07-29T06:24:32.968Z,2.90
2022-07-29T06:26:59.828Z,3.15
2022-07-29T06:29:28.929Z,3.45
2022-07-29T06:31:58.448Z,3.58
2022-07-29T06:34:25.219Z,3.28
2022-07-29T06:36:53.591Z,3.70
2022-07-29T06:39:23.583Z,3.60
2022-07-29T06:41:53.208Z,3.22
2022-07-29T06:44:20.376Z,3.70
2022-07-29T06:46:50.024Z,3.22
2022-07-29T06:49:17.136Z,3.15
2022-07-29T06:51:43.999Z,3.17
2022-07-29T06:54:10.759Z,3.38
2022-07-29T06:56:42.546Z,3.17
2022-07-29T06:59:10.541Z,3.42
2022-07-29T07:01:42.854Z,3.08
2022-07-29T07:04:11.152Z,3.60
2022-07-29T07:06:38.728Z,3.30
2022-07-29T07:09:06.285Z,3.00
2022-07-29T07:11:33.372Z,3.92
2022-07-29T07:14:03.556Z,2.90
2022-07-29T07:16:31.993Z,2.97
2022-07-29T07:18:58.866Z,2.88
2022-07-29T07:21:25.580Z,3.25
2022-07-29T07:23:54.648Z,3.10
2022-07-29T07:26:21.519Z,3.03
2022-07-29T07:28:48.411Z,3.03
2022-07-29T07:31:15.222Z,3.10
2022-07-29T07:33:41.999Z,3.30
2022-07-29T07:36:11.910Z,3.22
2022-07-29T07:38:40.811Z,2.95
2022-07-29T07:41:08.548Z,3.47
2022-07-29T07:43:35.275Z,3.25
2022-07-29T07:46:02.054Z,3.30
2022-07-29T07:48:35.790Z,3.10
2022-07-29T07:51:02.465Z,3.40
2022-07-29T07:53:31.694Z,3.10
2022-07-29T07:56:14.675Z,3.10
2022-07-29T07:58:41.619Z,3.72
2022-07-29T08:01:11.125Z,3.10
2022-07-29T08:03:38.260Z,3.03
2022-07-29T08:06:05.389Z,3.22
2022-07-29T08:08:32.405Z,3.05
2022-07-29T08:11:00.648Z,3.78
2022-07-29T08:13:32.898Z,3.65
2022-07-29T08:16:11.653Z,3.20
2022-07-29T08:18:39.425Z,3.38
2022-07-29T08:21:06.290Z,3.38
2022-07-29T08:23:51.542Z,2.92
2022-07-29T08:26:23.418Z,3.30
2022-07-29T08:28:51.742Z,3.30
2022-07-29T08:31:19.215Z,3.40
2022-07-29T08:33:46.052Z,3.45
2022-07-29T08:36:14.275Z,3.35
2022-07-29T08:38:43.541Z,3.30
2022-07-29T08:41:10.615Z,2.90
2022-07-29T08:43:38.332Z,3.28
2022-07-29T08:46:05.449Z,3.00
2022-07-29T08:48:35.226Z,3.30
2022-07-29T08:51:04.423Z,3.25
2022-07-29T08:53:31.999Z,3.35
2022-07-29T08:55:59.255Z,2.80
2022-07-29T08:58:29.656Z,2.58
2022-07-29T09:00:58.001Z,3.15
2022-07-29T09:03:26.750Z,2.65
2022-07-29T09:05:54.319Z,2.70
2022-07-29T09:08:21.301Z,2.47
2022-07-29T09:10:48.973Z,2.80
2022-07-29T09:13:15.702Z,3.13
2022-07-29T09:15:44.658Z,3.00
2022-07-29T09:18:33.773Z,2.72
2022-07-29T09:21:19.616Z,2.50
2022-07-29T09:24:09.389Z,3.05
2022-07-29T09:26:40.000Z,2.95
2022-07-29T09:29:15.623Z,2.70
2022-07-29T09:31:47.623Z,2.55
2022-07-29T09:34:32.829Z,2.83
2022-07-29T09:37:01.968Z,2.63
2022-07-29T09:39:28.634Z,2.65
2022-07-29T09:41:58.222Z,3.03
2022-07-29T09:44:25.834Z,2.80
2022-07-29T09:47:06.847Z,2.42
2022-07-29T09:49:56.211Z,2.90
2022-07-29T09:52:23.032Z,2.72
2022-07-29T09:54:52.471Z,2.45
2022-07-29T09:57:31.027Z,2.42
2022-07-29T10:00:11.592Z,2.78
2022-07-29T10:02:39.850Z,2.70
2022-07-29T10:05:24.701Z,2.63
2022-07-29T10:07:54.302Z,2.65
2022-07-29T10:10:35.562Z,2.90
2022-07-29T10:13:09.010Z,2.50
2022-07-29T10:15:42.134Z,2.67
2022-07-29T10:18:12.602Z,3.03
2022-07-29T10:20:40.100Z,2.95
2022-07-29T10:23:09.770Z,3.53
2022-07-29T10:25:36.532Z,3.22
2022-07-29T10:28:03.737Z,2.58
2022-07-29T10:30:30.669Z,2.72
2022-07-29T10:33:30.959Z,2.55
2022-07-29T10:36:21.869Z,2.97
2022-07-29T10:39:03.481Z,2.53
2022-07-29T10:41:44.481Z,2.60
2022-07-29T10:44:17.345Z,2.63
2022-07-29T10:46:47.035Z,2.90
2022-07-29T10:49:27.997Z,3.00
2022-07-29T10:54:49.211Z,2.38
2022-07-29T10:57:53.776Z,2.33
2022-07-29T11:00:16.961Z,2.55
2022-07-29T11:02:50.015Z,2.42
2022-07-29T11:05:59.892Z,2.50
2022-07-29T11:08:27.843Z,3.00
2022-07-29T11:11:25.309Z,2.53
2022-07-29T11:13:57.027Z,2.65
2022-07-29T11:16:25.027Z,2.42
2022-07-29T11:19:14.335Z,2.10
2022-07-29T11:21:54.021Z,2.45
2022-07-29T11:24:29.082Z,3.05
2022-07-29T11:27:14.839Z,2.58
2022-07-29T11:29:57.172Z,2.55
2022-07-29T11:35:38.414Z,3.08
2022-07-29T11:38:27.921Z,2.47
2022-07-29T11:41:27.264Z,2.53
2022-07-29T11:43:59.211Z,2.83
2022-07-29T11:46:44.068Z,2.40
2022-07-29T11:49:12.348Z,2.50
2022-07-29T11:51:48.223Z,2.38
2022-07-29T11:54:57.551Z,2.50
2022-07-29T11:57:22.744Z,2.30
2022-07-29T12:00:09.911Z,2.35
2022-07-29T12:02:48.620Z,2.45
2022-07-29T12:07:02.572Z,2.85
2022-07-29T12:07:03.988Z,2.55
2022-07-29T12:08:12.602Z,2.63
2022-07-29T12:10:42.239Z,2.28
2022-07-29T12:13:11.922Z,2.38
2022-07-29T12:15:47.100Z,2.60
2022-07-29T12:18:23.847Z,2.13
2022-07-29T12:20:58.906Z,2.28
2022-07-29T12:23:25.760Z,2.33
2022-07-29T12:25:56.617Z,2.45
2022-07-29T12:28:27.553Z,2.72
2022-07-29T12:30:54.963Z,2.28
2022-07-29T12:33:29.593Z,2.28
2022-07-29T12:36:07.282Z,2.63
2022-07-29T12:38:41.128Z,2.50
2022-07-29T12:41:08.024Z,2.58
2022-07-29T12:43:34.834Z,2.53
2022-07-29T12:46:16.023Z,2.42
2022-07-29T12:48:44.632Z,2.67
2022-07-29T12:51:15.121Z,2.72
2022-07-29T12:54:01.748Z,2.63
2022-07-29T12:56:42.224Z,2.05
2022-07-29T12:59:23.142Z,2.58
2022-07-29T13:01:52.985Z,2.03
2022-07-29T13:04:34.063Z,1.80
2022-07-29T13:07:07.450Z,1.90
2022-07-29T13:12:19.489Z,2.03
2022-07-29T13:14:50.254Z,1.83
2022-07-29T13:17:21.571Z,1.90
2022-07-29T13:19:50.783Z,1.98
2022-07-29T13:22:23.105Z,1.92
2022-07-29T13:25:03.082Z,1.98
2022-07-29T13:27:34.784Z,1.95
2022-07-29T13:30:03.752Z,1.50
2022-07-29T13:32:35.377Z,1.90
2022-07-29T13:35:08.945Z,1.75
2022-07-29T13:37:39.245Z,1.70
2022-07-29T13:40:07.955Z,1.63
2022-07-29T13:42:37.095Z,1.95
2022-07-29T13:45:05.454Z,1.77
2022-07-29T13:47:33.270Z,1.80
2022-07-29T13:50:05.366Z,1.80
2022-07-29T13:52:33.344Z,1.83
2022-07-29T13:55:04.762Z,1.90
2022-07-29T13:57:31.767Z,1.58
2022-07-29T13:59:58.824Z,1.90
2022-07-29T14:02:26.312Z,2.25
2022-07-29T14:04:54.986Z,2.20
2022-07-29T14:07:26.429Z,1.73
2022-07-29T14:09:53.160Z,1.80
2022-07-29T14:12:20.277Z,1.95
2022-07-29T14:14:47.223Z,1.85
2022-07-29T14:17:16.612Z,1.90
2022-07-29T14:19:45.626Z,1.70
2022-07-29T14:22:14.810Z,1.50
2022-07-29T14:24:41.812Z,1.80
2022-07-29T14:27:09.715Z,1.33
2022-07-29T14:29:37.668Z,2.25
2022-07-29T14:32:12.305Z,1.60
2022-07-29T14:34:39.545Z,1.80
2022-07-29T14:37:07.040Z,1.45
2022-07-29T14:39:38.131Z,1.45
2022-07-29T14:42:14.398Z,1.70
2022-07-29T14:44:44.657Z,1.40
2022-07-29T14:47:11.625Z,1.52
2022-07-29T14:49:40.571Z,1.42
2022-07-29T14:52:07.338Z,1.40
2022-07-29T14:54:34.131Z,1.70
2022-07-29T14:57:00.849Z,1.42
2022-07-29T14:59:27.745Z,1.52
2022-07-29T15:01:54.922Z,1.50
2022-07-29T15:04:21.783Z,2.88
2022-07-29T15:06:48.893Z,1.67
2022-07-29T15:09:15.655Z,1.60
2022-07-29T15:11:42.319Z,1.50
2022-07-29T15:14:09.319Z,1.45
2022-07-29T15:16:43.461Z,1.60
2022-07-29T15:19:11.673Z,1.85
2022-07-29T15:21:48.195Z,1.60
2022-07-29T15:24:25.299Z,1.98
2022-07-29T15:26:52.020Z,1.55
2022-07-29T15:29:19.990Z,1.73
2022-07-29T15:31:46.766Z,1.75
2022-07-29T15:34:13.513Z,1.60
2022-07-29T15:36:56.294Z,1.50
2022-07-29T15:39:23.388Z,1.70
2022-07-29T15:41:50.553Z,2.67
2022-07-29T15:44:17.849Z,1.67
2022-07-29T15:47:03.019Z,1.60
2022-07-29T15:49:48.091Z,1.60
2022-07-29T15:52:19.071Z,1.58
2022-07-29T15:54:51.722Z,1.40
2022-07-29T15:57:18.453Z,1.50
2022-07-29T15:59:45.319Z,1.40
2022-07-29T16:02:14.398Z,1.45
2022-07-29T16:04:41.284Z,1.27
2022-07-29T16:07:10.231Z,1.10
2022-07-29T16:09:36.902Z,1.38
2022-07-29T16:12:15.369Z,1.42
2022-07-29T16:14:43.574Z,1.52
2022-07-29T16:17:14.572Z,1.42
2022-07-29T16:19:43.094Z,1.40
2022-07-29T16:22:10.323Z,1.70
2022-07-29T16:24:37.087Z,1.63
2022-07-29T16:27:06.302Z,1.67
2022-07-29T16:29:33.091Z,1.70
2022-07-29T16:32:00.929Z,1.80
2022-07-29T16:34:27.647Z,1.60
2022-07-29T16:36:57.002Z,1.75
2022-07-29T16:39:23.738Z,1.55
2022-07-29T16:41:54.096Z,1.73
2022-07-29T16:44:25.047Z,1.40
2022-07-29T16:46:52.089Z,1.45
2022-07-29T16:49:22.762Z,1.70
2022-07-29T16:51:49.518Z,1.70
2022-07-29T16:54:19.476Z,1.40
2022-07-29T16:56:46.277Z,1.60
2022-07-29T16:59:16.539Z,1.40
2022-07-29T17:01:43.276Z,1.73
2022-07-29T17:04:10.974Z,1.30
2022-07-29T17:06:39.632Z,2.20
2022-07-29T17:09:10.177Z,1.30
2022-07-29T17:11:54.114Z,1.33
2022-07-29T17:14:25.760Z,2.03
2022-07-29T17:17:02.499Z,1.65
2022-07-29T17:19:34.181Z,1.42
2022-07-29T17:22:12.590Z,2.40
2022-07-29T17:24:45.360Z,1.55
2022-07-29T17:27:12.552Z,1.52
2022-07-29T17:29:39.409Z,1.90
2022-07-29T17:32:07.833Z,1.50
2022-07-29T17:34:36.077Z,1.92
2022-07-29T17:37:03.489Z,2.00
2022-07-29T17:39:33.980Z,2.05
2022-07-29T17:42:03.441Z,1.60
2022-07-29T17:44:32.460Z,1.50
2022-07-29T17:47:15.669Z,2.00
2022-07-29T17:49:45.970Z,1.63
2022-07-29T17:52:12.815Z,1.70
2022-07-29T17:54:42.002Z,2.00
2022-07-29T17:57:08.801Z,1.70
2022-07-29T17:59:35.615Z,2.08
2022-07-29T18:02:02.462Z,1.60
2022-07-29T18:04:30.951Z,1.85
2022-07-29T18:07:00.212Z,1.85
2022-07-29T18:09:29.875Z,1.98
2022-07-29T18:11:56.674Z,1.60
2022-07-29T18:14:25.921Z,1.70
2022-07-29T18:16:52.739Z,2.05
2022-07-29T18:19:19.451Z,2.13
2022-07-29T18:21:54.546Z,2.10
2022-07-29T18:24:25.418Z,2.17
2022-07-29T18:26:52.473Z,2.10
2022-07-29T18:29:21.936Z,2.20
2022-07-29T18:31:48.821Z,2.10
2022-07-29T18:34:16.963Z,1.92
2022-07-29T18:36:43.808Z,2.00
2022-07-29T18:39:13.204Z,1.83
2022-07-29T18:41:51.224Z,2.03
2022-07-29T18:44:19.280Z,2.00
2022-07-29T18:46:48.530Z,1.80
2022-07-29T18:49:15.352Z,2.05
2022-07-29T18:51:42.153Z,2.28
2022-07-29T18:54:10.044Z,2.42
2022-07-29T18:56:37.260Z,1.83
2022-07-29T18:59:06.661Z,1.98
2022-07-29T19:01:38.770Z,2.75
2022-07-29T19:04:05.626Z,2.28
2022-07-29T19:06:32.401Z,2.10
2022-07-29T19:09:00.097Z,2.30
2022-07-29T19:11:29.143Z,2.42
2022-07-29T19:13:55.866Z,2.03
2022-07-29T19:16:24.912Z,2.28
2022-07-29T19:18:51.763Z,2.50
2022-07-29T19:21:20.728Z,2.22
2022-07-29T19:24:04.217Z,2.45
2022-07-29T19:26:42.007Z,2.40
2022-07-29T19:29:09.101Z,2.25
2022-07-29T19:31:35.922Z,1.95
2022-07-29T19:34:02.668Z,2.15
2022-07-29T19:36:31.298Z,2.65
2022-07-29T19:38:58.109Z,2.20
2022-07-29T19:41:27.198Z,2.55
2022-07-29T19:43:56.411Z,2.95
2022-07-29T19:46:24.268Z,2.55
2022-07-29T19:48:52.881Z,2.60
2022-07-29T19:51:19.711Z,3.03
2022-07-29T19:53:46.481Z,2.90
2022-07-29T19:56:15.690Z,2.88
2022-07-29T19:58:43.892Z,2.55
2022-07-29T20:01:11.331Z,2.92
2022-07-29T20:03:40.012Z,3.17
2022-07-29T20:06:09.958Z,3.00
2022-07-29T20:08:39.829Z,2.75
2022-07-29T20:11:06.725Z,2.78
2022-07-29T20:13:35.291Z,2.83
2022-07-29T20:16:08.756Z,3.33
2022-07-29T20:21:04.953Z,3.20
2022-07-29T20:23:33.468Z,2.40
2022-07-29T20:26:00.758Z,3.08
2022-07-29T20:28:27.610Z,2.95
2022-07-29T20:30:59.063Z,2.95
2022-07-29T20:33:25.791Z,2.47
2022-07-29T20:35:52.553Z,2.70
2022-07-29T20:38:21.817Z,2.88
2022-07-29T20:40:48.552Z,2.65
2022-07-29T20:43:15.813Z,2.22
2022-07-29T20:45:45.347Z,2.72
2022-07-29T20:48:14.328Z,3.10
2022-07-29T20:50:42.747Z,3.00
2022-07-29T20:53:09.500Z,2.50
2022-07-29T20:55:38.640Z,2.38
2022-07-29T20:58:08.369Z,2.60
2022-07-29T21:00:35.056Z,2.78
2022-07-29T21:03:04.023Z,2.42
2022-07-29T21:05:31.785Z,2.65
2022-07-29T21:08:01.091Z,2.45
2022-07-29T21:10:29.319Z,2.88
2022-07-29T21:12:56.122Z,2.30
2022-07-29T21:15:23.269Z,2.80
2022-07-29T21:17:52.380Z,2.58
2022-07-29T21:20:19.616Z,2.45
2022-07-29T21:22:46.348Z,3.30
2022-07-29T21:25:13.214Z,2.60
2022-07-29T21:28:00.963Z,2.90
2022-07-29T21:30:32.541Z,2.40
2022-07-29T21:33:01.435Z,2.13
2022-07-29T21:35:58.940Z,2.42
2022-07-29T21:38:18.420Z,2.80
2022-07-29T21:40:50.422Z,3.15
2022-07-29T21:43:18.273Z,2.58
2022-07-29T21:45:50.065Z,2.80
2022-07-29T21:48:18.599Z,3.17
2022-07-29T21:50:48.265Z,3.00
2022-07-29T21:53:15.863Z,2.95
2022-07-29T21:55:43.294Z,3.28
2022-07-29T21:58:11.206Z,2.67
2022-07-29T22:00:38.110Z,2.75
2022-07-29T22:03:05.705Z,2.92
2022-07-29T22:05:32.590Z,3.25
2022-07-29T22:08:05.082Z,2.67
2022-07-29T22:10:31.856Z,3.00
2022-07-29T22:13:00.343Z,2.95
2022-07-29T22:15:27.872Z,2.63
2022-07-29T22:17:54.727Z,3.10
2022-07-29T22:20:24.667Z,3.22
2022-07-29T22:22:51.491Z,3.08
2022-07-29T22:25:18.362Z,3.05
2022-07-29T22:27:50.158Z,3.17
2022-07-29T22:30:18.600Z,2.85
2022-07-29T22:32:45.314Z,2.92
2022-07-29T22:35:12.266Z,3.53
2022-07-29T22:37:39.196Z,3.08
2022-07-29T22:40:06.640Z,3.35
2022-07-29T22:42:34.512Z,2.92
2022-07-29T22:45:03.694Z,2.72
2022-07-29T22:47:38.961Z,3.00
2022-07-29T22:50:15.777Z,2.78
2022-07-29T22:52:44.808Z,3.38
2022-07-29T22:55:12.085Z,3.55
2022-07-29T22:57:38.847Z,2.88
2022-07-29T23:00:06.567Z,3.20
2022-07-29T23:02:33.365Z,2.83
2022-07-29T23:05:00.043Z,2.75
2022-07-29T23:07:27.732Z,2.60
2022-07-29T23:09:54.422Z,3.03
2022-07-29T23:12:21.147Z,2.80
2022-07-29T23:14:47.877Z,2.60
2022-07-29T23:17:14.647Z,2.72
2022-07-29T23:19:41.379Z,2.42
2022-07-29T23:22:08.222Z,2.80
2022-07-29T23:24:34.970Z,2.50
2022-07-29T23:27:04.129Z,2.75
2022-07-29T23:29:34.976Z,2.72
2022-07-29T23:32:03.448Z,2.42
2022-07-29T23:34:30.146Z,2.42
2022-07-29T23:36:56.919Z,2.72
2022-07-29T23:39:23.808Z,2.25
2022-07-29T23:41:50.583Z,2.92
2022-07-29T23:44:21.903Z,2.40
2022-07-29T23:46:48.669Z,2.50
2022-07-29T23:49:20.545Z,2.55
2022-07-29T23:51:47.378Z,1.95
2022-07-29T23:54:14.112Z,2.30
2022-07-29T23:56:40.896Z,2.88
2022-07-29T23:59:07.698Z,2.30
